Time;durP1;ratioP1;P1;durP2;ratioP2;P2;SDS_P1;SDS_P2;PMS_P1;PMS_P2;Temp;Humidity;BMP_temperature;BMP_pressure;BME280_temperature;BME280_humidity;BME280_pressure;Samples;Min_cycle;Max_cycle;Signal;HPM_P1;HPM_P2
2023/03/29 00:01:24;;;;;;;4.43;2.00;;;0.20;99.90;;;;;;10437455;28;20225;-77
2023/03/29 00:07:06;;;;;;;3.87;1.93;;;0.20;99.90;;;;;;10482347;28;20204;-77
2023/03/29 00:12:27;;;;;;;4.97;1.80;;;0.10;99.90;;;;;;10439712;28;20526;-77
2023/03/29 00:17:48;;;;;;;7.23;1.67;;;0.10;99.90;;;;;;10434724;28;20251;-78
2023/03/29 00:23:10;;;;;;;7.13;2.33;;;0.20;99.90;;;;;;10439779;28;20539;-76
2023/03/29 00:28:31;;;;;;;2.83;1.83;;;0.10;99.90;;;;;;10440286;28;20192;-79
2023/03/29 00:33:52;;;;;;;4.87;2.40;;;0.10;99.90;;;;;;10434587;28;20231;-77
2023/03/29 00:39:13;;;;;;;2.90;1.90;;;0.10;99.90;;;;;;10438482;28;20477;-77
2023/03/29 00:44:52;;;;;;;4.83;2.30;;;0.00;99.90;;;;;;10439509;28;20289;-76
2023/03/29 00:50:42;;;;;;;5.70;2.50;;;0.00;99.90;;;;;;10414236;28;20214;-76
2023/03/29 00:56:12;;;;;;;5.33;2.30;;;0.00;99.90;;;;;;10437028;28;20196;-77
2023/03/29 01:02:06;;;;;;;6.47;2.43;;;-0.10;99.90;;;;;;10442466;28;20226;-76
2023/03/29 01:07:39;;;;;;;5.90;2.63;;;0.00;99.90;;;;;;10527591;28;20256;-77
2023/03/29 01:13:09;;;;;;;4.27;2.13;;;0.00;99.90;;;;;;10489163;28;20227;-76
2023/03/29 01:18:30;;;;;;;2.63;2.00;;;-0.10;99.90;;;;;;10456685;28;20228;-76
2023/03/29 01:24:12;;;;;;;4.80;2.47;;;0.00;99.90;;;;;;10461653;28;20203;-76
2023/03/29 01:29:41;;;;;;;4.43;2.43;;;0.00;99.90;;;;;;10460684;28;20206;-77
2023/03/29 01:35:09;;;;;;;4.53;2.10;;;-0.10;99.90;;;;;;10417994;28;20209;-75
2023/03/29 01:40:32;;;;;;;5.13;2.50;;;-0.20;99.90;;;;;;10422429;28;20243;-77
2023/03/29 01:46:13;;;;;;;6.10;2.47;;;-0.20;99.90;;;;;;10400711;28;20227;-75
2023/03/29 01:51:39;;;;;;;5.03;2.33;;;-0.30;99.90;;;;;;10436257;28;20211;-75
2023/03/29 01:57:04;;;;;;;6.13;2.13;;;-0.30;99.90;;;;;;10432639;28;20195;-78
2023/03/29 02:02:27;;;;;;;7.97;2.67;;;;;;;;;;10395726;28;20232;-78
2023/03/29 02:07:50;;;;;;;3.33;2.50;;;-0.50;99.90;;;;;;10393983;28;20239;-79
2023/03/29 02:13:11;;;;;;;9.63;2.50;;;-0.60;99.90;;;;;;10406800;28;20211;-78
2023/03/29 02:18:34;;;;;;;4.10;2.10;;;-0.70;99.90;;;;;;10395360;28;20220;-78
2023/03/29 02:23:59;;;;;;;6.17;2.50;;;-0.70;99.90;;;;;;10395138;28;20192;-78
2023/03/29 02:29:20;;;;;;;5.97;3.27;;;-0.60;99.90;;;;;;10428800;28;20202;-76
2023/03/29 02:34:49;;;;;;;4.83;2.63;;;-0.60;99.90;;;;;;10420695;28;20487;-79
2023/03/29 02:40:13;;;;;;;9.63;3.67;;;-0.70;99.90;;;;;;10415596;28;20545;-78
2023/03/29 02:45:35;;;;;;;5.83;2.87;;;-0.70;99.90;;;;;;10434605;28;20228;-79
2023/03/29 02:51:01;;;;;;;5.77;2.90;;;-0.80;99.90;;;;;;10434522;28;20454;-79
2023/03/29 02:56:23;;;;;;;8.03;3.87;;;-0.90;99.90;;;;;;10444599;28;20200;-77
2023/03/29 03:01:44;;;;;;;10.50;6.03;;;-0.90;99.90;;;;;;10475348;28;20230;-78
2023/03/29 03:07:06;;;;;;;16.93;8.13;;;-0.90;99.90;;;;;;10475406;28;20230;-79
2023/03/29 03:12:27;;;;;;;17.93;8.67;;;-0.90;99.90;;;;;;10411839;28;20198;-75
2023/03/29 03:17:49;;;;;;;7.60;4.50;;;-0.90;99.90;;;;;;10420083;28;20502;-74
2023/03/29 03:23:10;;;;;;;7.67;3.10;;;-0.90;99.90;;;;;;10401971;28;20243;-76
2023/03/29 03:28:32;;;;;;;4.33;2.67;;;-0.80;99.90;;;;;;10437400;28;20244;-77
2023/03/29 03:33:57;;;;;;;4.53;2.43;;;-0.70;99.90;;;;;;10441626;28;20189;-78
2023/03/29 03:39:30;;;;;;;6.40;3.07;;;-0.80;99.90;;;;;;10435916;28;20309;-75
2023/03/29 03:44:52;;;;;;;8.73;3.90;;;-0.80;99.90;;;;;;10413763;28;20588;-78
2023/03/29 03:50:34;;;;;;;8.43;4.07;;;-0.80;99.90;;;;;;10440262;28;20223;-76
2023/03/29 03:55:55;;;;;;;9.10;4.07;;;-0.90;99.90;;;;;;10461327;28;20196;-76
2023/03/29 04:01:20;;;;;;;9.40;3.83;;;-0.90;99.90;;;;;;10444708;28;20229;-76
2023/03/29 04:06:53;;;;;;;8.47;4.10;;;-1.00;99.90;;;;;;10440324;28;20193;-75
2023/03/29 04:12:36;;;;;;;17.00;8.50;;;-1.00;99.90;;;;;;10460865;28;20528;-74
2023/03/29 04:18:00;;;;;;;22.90;10.00;;;-1.00;99.90;;;;;;10449486;28;20223;-76
2023/03/29 04:23:27;;;;;;;17.03;9.30;;;-1.00;99.90;;;;;;10435921;28;20224;-78
2023/03/29 04:28:48;;;;;;;21.53;9.30;;;-1.00;99.90;;;;;;10436756;28;20223;-75
2023/03/29 04:34:20;;;;;;;14.70;7.93;;;-1.10;99.90;;;;;;10419648;28;20214;-76
2023/03/29 04:39:47;;;;;;;16.13;7.33;;;-1.20;99.90;;;;;;10417995;28;20236;-76
2023/03/29 04:45:09;;;;;;;16.00;7.67;;;-1.10;99.90;;;;;;10421581;28;20438;-76
2023/03/29 04:50:49;;;;;;;13.17;7.67;;;-1.10;99.90;;;;;;10413238;28;20276;-75
2023/03/29 04:56:12;;;;;;;10.93;6.33;;;-1.10;99.90;;;;;;10456012;28;20206;-78
2023/03/29 05:01:53;;;;;;;9.83;6.40;;;-1.20;99.90;;;;;;10480282;28;20215;-78
2023/03/29 05:07:16;;;;;;;9.50;5.87;;;-1.20;99.90;;;;;;10472774;28;20239;-77
2023/03/29 05:12:39;;;;;;;10.60;6.27;;;-1.20;99.90;;;;;;10437713;28;20203;-75
2023/03/29 05:18:01;;;;;;;9.27;5.40;;;-1.20;99.90;;;;;;10421669;28;20214;-75
2023/03/29 05:23:25;;;;;;;10.43;6.27;;;-1.10;99.90;;;;;;10435787;28;20197;-77
2023/03/29 05:29:17;;;;;;;28.77;12.47;;;-1.10;99.90;;;;;;10432055;28;20395;-80
2023/03/29 05:34:45;;;;;;;27.63;12.60;;;-1.00;99.90;;;;;;10436908;28;20438;-75
2023/03/29 05:40:08;;;;;;;24.60;12.10;;;-0.80;99.90;;;;;;10417068;28;20232;-77
2023/03/29 05:46:06;;;;;;;30.30;13.70;;;-0.70;99.90;;;;;;10437336;28;20313;-79
2023/03/29 05:51:28;;;;;;;22.07;11.63;;;-0.70;99.90;;;;;;10436097;28;20236;-76
2023/03/29 05:56:50;;;;;;;20.60;9.87;;;-0.60;99.90;;;;;;10454159;28;20222;-77
2023/03/29 06:02:11;;;;;;;20.07;9.23;;;-0.50;99.90;;;;;;10476462;28;20237;-76
2023/03/29 06:07:38;;;;;;;14.40;7.03;;;-0.40;99.50;;;;;;10476910;28;20543;-76
2023/03/29 06:13:18;;;;;;;17.93;9.20;;;-0.30;98.70;;;;;;10442991;28;20239;-77
2023/03/29 06:18:40;;;;;;;13.30;7.50;;;-0.10;97.90;;;;;;10435048;28;20406;-75
2023/03/29 06:24:01;;;;;;;12.47;8.17;;;0.10;97.00;;;;;;10431326;28;20204;-77
2023/03/29 06:29:29;;;;;;;20.20;11.73;;;0.30;94.30;;;;;;10434862;28;20189;-78
2023/03/29 06:34:51;;;;;;;14.33;7.87;;;0.30;92.40;;;;;;10440437;28;20192;-77
2023/03/29 06:40:32;;;;;;;18.90;9.87;;;0.60;88.50;;;;;;10436609;28;20289;-76
2023/03/29 06:45:53;;;;;;;21.97;11.03;;;0.90;83.60;;;;;;10420718;28;20188;-76
2023/03/29 06:51:26;;;;;;;16.87;7.53;;;1.40;79.00;;;;;;10393641;28;20196;-75
2023/03/29 06:56:48;;;;;;;11.70;5.50;;;3.30;48.40;;;;;;10412102;28;20357;-77
2023/03/29 07:02:14;;;;;;;11.00;5.37;;;5.20;28.60;;;;;;10374391;28;20309;-78
2023/03/29 07:08:09;;;;;;;8.13;5.13;;;6.70;19.50;;;;;;10428329;28;20204;-78
2023/03/29 07:13:47;;;;;;;13.50;6.40;;;;;;;;;;10458605;28;20201;-80
2023/03/29 07:19:13;;;;;;;14.43;6.70;;;;;;;;;;10417257;28;20247;-76
2023/03/29 07:24:49;;;;;;;8.97;3.63;;;9.50;9.20;;;;;;10437177;28;20210;-78
2023/03/29 07:30:15;;;;;;;5.10;3.40;;;10.50;8.30;;;;;;10436250;28;20208;-77
2023/03/29 07:35:37;;;;;;;7.97;3.37;;;11.00;5.50;;;;;;10436467;28;20214;-76
2023/03/29 07:41:01;;;;;;;11.07;5.70;;;11.30;5.10;;;;;;10422635;28;20229;-77
2023/03/29 07:46:36;;;;;;;7.23;3.47;;;;;;;;;;10410753;28;20210;-76
2023/03/29 07:51:57;;;;;;;8.80;3.87;;;12.50;12.30;;;;;;10380728;28;20199;-77
2023/03/29 07:57:18;;;;;;;8.77;4.43;;;;;;;;;;10395464;28;20200;-77
2023/03/29 08:02:51;;;;;;;14.43;8.80;;;;;;;;;;10433468;28;20229;-78
2023/03/29 08:08:13;;;;;;;20.48;10.13;;;13.20;1.00;;;;;;10429028;28;20211;-77
2023/03/29 08:13:58;;;;;;;14.60;4.40;;;12.90;1.00;;;;;;10433415;28;20276;-77
2023/03/29 08:19:19;;;;;;;7.20;3.57;;;13.10;1.00;;;;;;10431017;28;20226;-77
2023/03/29 08:24:53;;;;;;;11.27;6.90;;;13.70;1.00;;;;;;10425153;28;20309;-76
2023/03/29 08:30:18;;;;;;;8.60;4.60;;;13.70;1.00;;;;;;10419845;28;20211;-76
2023/03/29 08:35:40;;;;;;;15.88;8.80;;;;;;;;;;10427923;28;20494;-78
2023/03/29 08:41:26;;;;;;;10.95;6.20;;;;;;;;;;10407117;28;20459;-80
2023/03/29 08:47:11;;;;;;;5.73;4.17;;;14.30;15.50;;;;;;10392831;28;20276;-76
2023/03/29 08:52:42;;;;;;;5.50;3.17;;;;;;;;;;10395123;28;20212;-78
2023/03/29 08:58:24;;;;;;;3.67;2.45;;;;;;;;;;10465998;28;20217;-76
2023/03/29 09:04:03;;;;;;;6.10;3.25;;;;;;;;;;10468188;28;20279;-78
2023/03/29 09:09:41;;;;;;;6.97;2.72;;;15.50;1.00;;;;;;10474624;28;20196;-75
2023/03/29 09:15:23;;;;;;;6.35;3.15;;;15.70;1.00;;;;;;10410056;28;20477;-76
2023/03/29 09:21:16;;;;;;;9.25;3.22;;;15.20;1.00;;;;;;10382723;28;20569;-76
2023/03/29 09:26:51;;;;;;;6.18;3.45;;;14.60;1.00;;;;;;10384667;28;20274;-77
2023/03/29 09:32:51;;;;;;;10.00;4.00;;;15.00;1.00;;;;;;10411065;28;20294;-78
2023/03/29 09:38:21;;;;;;;5.22;2.25;;;15.70;1.00;;;;;;10414572;28;20205;-78
2023/03/29 09:43:44;;;;;;;4.47;2.25;;;16.40;1.00;;;;;;10413750;28;20245;-78
2023/03/29 09:49:36;;;;;;;13.43;7.18;;;16.70;1.00;;;;;;10381533;28;20238;-78
2023/03/29 09:55:00;;;;;;;42.50;4.40;;;16.40;1.00;;;;;;10407313;28;20215;-79
2023/03/29 10:00:41;;;;;;;10.48;3.45;;;15.90;1.00;;;;;;10462043;28;20247;-79
2023/03/29 10:06:08;;;;;;;3.72;2.15;;;15.70;1.00;;;;;;10471418;28;20216;-76
2023/03/29 10:11:33;;;;;;;6.10;4.32;;;16.20;1.00;;;;;;10447334;28;20647;-79
2023/03/29 10:16:55;;;;;;;9.43;3.90;;;16.20;1.00;;;;;;10418020;28;20273;-76
2023/03/29 10:22:23;;;;;;;3.22;2.08;;;16.30;1.00;;;;;;10421556;28;20248;-75
2023/03/29 10:27:46;;;;;;;6.57;3.20;;;16.40;1.00;;;;;;10430728;28;20194;-74
2023/03/29 10:33:17;;;;;;;12.60;4.88;;;16.00;1.00;;;;;;10425741;28;20213;-75
2023/03/29 10:38:38;;;;;;;8.50;4.20;;;15.50;1.00;;;;;;10428055;28;20201;-79
2023/03/29 10:44:00;;;;;;;2.92;2.10;;;15.70;1.00;;;;;;10430188;28;20228;-76
2023/03/29 10:49:22;;;;;;;11.20;5.78;;;15.50;1.00;;;;;;10429999;28;20243;-76
2023/03/29 10:54:44;;;;;;;4.88;2.22;;;15.40;1.00;;;;;;10440346;28;20208;-75
2023/03/29 11:00:22;;;;;;;5.10;2.70;;;15.80;1.00;;;;;;10471799;28;20224;-76
2023/03/29 11:06:14;;;;;;;6.90;2.83;;;15.60;1.00;;;;;;10472312;28;20211;-79
2023/03/29 11:12:06;;;;;;;5.95;2.28;;;14.50;1.00;;;;;;10491108;28;20322;-75
2023/03/29 11:17:57;;;;;;;8.13;2.70;;;13.90;1.00;;;;;;10463135;28;20249;-78
2023/03/29 11:23:37;;;;;;;10.13;3.03;;;14.70;1.00;;;;;;10421746;28;20246;-80
2023/03/29 11:29:43;;;;;;;5.32;3.70;;;14.90;1.00;;;;;;10461565;28;20225;-78
2023/03/29 11:35:19;;;;;;;15.87;3.20;;;14.10;1.00;;;;;;10452675;28;20440;-80
2023/03/29 11:40:56;;;;;;;4.87;2.23;;;13.10;1.00;;;;;;10468872;28;20241;-75
2023/03/29 11:46:38;;;;;;;10.83;3.20;;;12.30;1.50;;;;;;10463446;28;20202;-76
2023/03/29 11:52:10;;;;;;;5.87;2.20;;;12.20;1.90;;;;;;10437596;28;20521;-76
2023/03/29 11:57:39;;;;;;;10.73;5.10;;;12.30;1.90;;;;;;10464015;28;20693;-77
2023/03/29 12:03:05;;;;;;;5.47;3.00;;;12.40;2.50;;;;;;10476468;28;20220;-77
2023/03/29 12:08:38;;;;;;;8.70;2.73;;;12.20;2.00;;;;;;10471712;28;20300;-76
2023/03/29 12:14:24;;;;;;;5.90;3.00;;;12.70;2.00;;;;;;10452279;28;20212;-80
2023/03/29 12:20:13;;;;;;;7.00;2.60;;;12.40;2.00;;;;;;10434429;28;20253;-78
2023/03/29 12:26:10;;;;;;;11.53;4.97;;;11.90;2.80;;;;;;10418385;28;20234;-77
2023/03/29 12:31:52;;;;;;;9.37;3.67;;;11.50;3.60;;;;;;10434668;28;20263;-80
2023/03/29 12:37:25;;;;;;;7.63;3.10;;;11.20;4.50;;;;;;10436214;28;20551;-81
2023/03/29 12:43:37;;;;;;;10.83;4.70;;;11.30;4.90;;;;;;10363642;28;20541;-77
2023/03/29 12:49:26;;;;;;;8.40;3.60;;;11.70;4.40;;;;;;10376215;28;20630;-79
2023/03/29 12:54:59;;;;;;;6.90;3.20;;;11.60;4.10;;;;;;10359950;28;20293;-81
2023/03/29 13:00:26;;;;;;;8.27;4.60;;;11.40;4.90;;;;;;10431305;28;20240;-80
2023/03/29 13:06:01;;;;;;;10.13;4.30;;;11.10;5.30;;;;;;10431166;28;20477;-79
2023/03/29 13:11:47;;;;;;;9.37;4.43;;;11.00;5.80;;;;;;10432254;28;20218;-76
2023/03/29 13:17:34;;;;;;;6.43;4.03;;;11.10;5.70;;;;;;10410803;28;20245;-85
2023/03/29 13:23:19;;;;;;;11.50;3.70;;;11.20;5.70;;;;;;10433115;28;20267;-76
2023/03/29 13:29:04;;;;;;;12.77;6.43;;;10.80;6.50;;;;;;10421686;28;20437;-77
2023/03/29 13:34:52;;;;;;;7.83;4.27;;;10.70;6.50;;;;;;10432290;28;20206;-79
2023/03/29 13:40:52;;;;;;;9.20;4.17;;;10.70;6.70;;;;;;10432167;28;20600;-75
2023/03/29 13:46:21;;;;;;;12.53;4.73;;;10.60;6.90;;;;;;10346254;28;20389;-77
2023/03/29 13:52:11;;;;;;;9.13;3.80;;;10.40;7.50;;;;;;10347756;28;20200;-79
2023/03/29 13:57:37;;;;;;;17.90;7.63;;;10.00;7.90;;;;;;10301498;28;20410;-83
2023/03/29 14:03:05;;;;;;;19.37;7.60;;;9.80;8.60;;;;;;10292362;28;20278;-78
2023/03/29 14:08:29;;;;;;;17.87;5.40;;;9.80;9.30;;;;;;10266431;28;20209;-79
2023/03/29 14:13:55;;;;;;;8.83;3.87;;;9.70;9.80;;;;;;10277738;28;20254;-79
2023/03/29 14:19:28;;;;;;;7.40;3.60;;;9.60;10.60;;;;;;10286970;28;20279;-77
2023/03/29 14:24:53;;;;;;;14.83;5.57;;;9.50;10.30;;;;;;10283143;28;20592;-80
2023/03/29 14:30:28;;;;;;;7.97;3.70;;;9.40;11.00;;;;;;10295042;28;20213;-79
2023/03/29 14:35:49;;;;;;;9.93;5.73;;;9.50;11.10;;;;;;10301579;28;20203;-78
2023/03/29 14:41:11;;;;;;;8.80;4.27;;;9.70;11.20;;;;;;10338195;28;20281;-75
2023/03/29 14:46:33;;;;;;;19.73;6.90;;;9.90;10.90;;;;;;10430506;28;20187;-79
2023/03/29 14:51:55;;;;;;;10.17;5.33;;;9.70;11.00;;;;;;10429671;28;20208;-80
2023/03/29 14:57:19;;;;;;;15.33;6.87;;;9.70;11.40;;;;;;10425476;28;20554;-80
2023/03/29 15:02:49;;;;;;;15.60;7.60;;;9.50;11.90;;;;;;10396428;28;20279;-75
2023/03/29 15:08:32;;;;;;;14.27;5.90;;;9.40;11.60;;;;;;10403472;28;20399;-77
2023/03/29 15:14:20;;;;;;;12.20;5.97;;;9.50;11.70;;;;;;10419204;28;20433;-76
2023/03/29 15:19:41;;;;;;;14.40;5.93;;;9.50;12.40;;;;;;10441915;28;20219;-77
2023/03/29 15:25:08;;;;;;;10.53;4.87;;;9.40;12.20;;;;;;10429197;28;20208;-79
2023/03/29 15:30:33;;;;;;;18.23;7.03;;;9.40;12.40;;;;;;10436389;28;20264;-79
2023/03/29 15:35:55;;;;;;;9.97;4.77;;;9.40;12.20;;;;;;10407468;28;20213;-79
2023/03/29 15:41:16;;;;;;;14.73;6.43;;;9.30;12.40;;;;;;10419525;28;20314;-76
2023/03/29 15:46:37;;;;;;;13.73;6.20;;;9.20;12.50;;;;;;10417748;28;20273;-78
2023/03/29 15:51:58;;;;;;;15.20;7.10;;;9.10;13.20;;;;;;10441211;28;20208;-80
2023/03/29 15:57:19;;;;;;;24.10;11.67;;;9.10;13.40;;;;;;10442328;28;20263;-80
2023/03/29 16:02:40;;;;;;;13.87;6.50;;;9.00;13.70;;;;;;10437754;28;20384;-80
2023/03/29 16:08:01;;;;;;;16.60;8.00;;;8.90;14.20;;;;;;10442023;28;20185;-78
2023/03/29 16:13:22;;;;;;;22.57;9.33;;;8.90;15.40;;;;;;10432581;28;20211;-80
2023/03/29 16:18:43;;;;;;;14.93;7.87;;;8.80;16.10;;;;;;10440176;28;20209;-80
2023/03/29 16:24:06;;;;;;;14.17;7.77;;;8.90;16.90;;;;;;10440301;28;20229;-79
2023/03/29 16:29:27;;;;;;;22.60;8.63;;;8.80;17.90;;;;;;10440913;28;20188;-78
2023/03/29 16:34:48;;;;;;;25.20;10.60;;;8.80;18.70;;;;;;10433597;28;20203;-76
2023/03/29 16:40:11;;;;;;;20.73;8.23;;;8.80;19.20;;;;;;10440528;28;20218;-78
2023/03/29 16:45:32;;;;;;;16.80;9.27;;;8.70;19.90;;;;;;10440760;28;20289;-77
2023/03/29 16:50:53;;;;;;;21.90;11.47;;;8.70;20.90;;;;;;10411476;28;20199;-76
2023/03/29 16:56:14;;;;;;;38.87;19.53;;;8.60;23.20;;;;;;10409676;28;20271;-78
2023/03/29 17:01:35;;;;;;;33.87;17.57;;;8.50;25.20;;;;;;10399144;28;20246;-76
2023/03/29 17:06:57;;;;;;;21.43;10.47;;;8.50;25.40;;;;;;10467984;28;20489;-77
2023/03/29 17:12:20;;;;;;;20.43;9.67;;;8.50;26.70;;;;;;10469436;28;20530;-79
2023/03/29 17:17:41;;;;;;;17.07;8.40;;;8.40;28.50;;;;;;10429528;28;20186;-80
2023/03/29 17:23:02;;;;;;;19.83;10.00;;;8.40;29.00;;;;;;10438275;28;20223;-77
2023/03/29 17:28:24;;;;;;;22.80;11.07;;;8.30;30.00;;;;;;10438071;28;20219;-78
2023/03/29 17:33:46;;;;;;;31.60;13.53;;;8.40;34.10;;;;;;10427459;28;20214;-77
2023/03/29 17:39:08;;;;;;;23.57;14.30;;;8.30;34.20;;;;;;10437401;28;20406;-76
2023/03/29 17:44:31;;;;;;;20.93;10.80;;;8.20;38.00;;;;;;10423721;28;20310;-76
2023/03/29 17:49:52;;;;;;;18.07;11.40;;;8.30;38.90;;;;;;10428521;28;20246;-79
2023/03/29 17:55:13;;;;;;;19.53;10.80;;;8.20;39.30;;;;;;10452686;28;20210;-79
2023/03/29 18:00:34;;;;;;;29.60;12.10;;;8.20;41.00;;;;;;10412332;28;20246;-77
2023/03/29 18:05:56;;;;;;;17.03;10.40;;;8.10;44.80;;;;;;10396673;28;20378;-76
2023/03/29 18:11:23;;;;;;;25.73;14.23;;;8.10;46.70;;;;;;10420476;28;20204;-77
2023/03/29 18:16:45;;;;;;;31.77;16.87;;;7.90;33.20;;;;;;10436996;28;20264;-77
2023/03/29 18:22:06;;;;;;;49.27;27.93;;;7.80;36.30;;;;;;10436269;28;20222;-79
2023/03/29 18:27:27;;;;;;;32.03;16.53;;;7.70;36.80;;;;;;10435362;28;20492;-79
2023/03/29 18:32:50;;;;;;;23.90;12.10;;;7.70;38.30;;;;;;10437106;28;20363;-78
2023/03/29 18:38:11;;;;;;;30.53;13.97;;;7.70;38.00;;;;;;10432085;28;20198;-80
2023/03/29 18:43:32;;;;;;;34.33;14.13;;;7.60;41.60;;;;;;10435391;28;20902;-81
2023/03/29 18:48:53;;;;;;;74.40;31.00;;;7.60;40.60;;;;;;10419567;28;20197;-78
2023/03/29 18:54:16;;;;;;;43.87;21.60;;;7.60;41.60;;;;;;10428220;28;20205;-79
2023/03/29 18:59:37;;;;;;;23.60;11.13;;;7.50;43.60;;;;;;10409061;28;20198;-76
2023/03/29 19:04:58;;;;;;;18.00;8.20;;;7.50;45.20;;;;;;10408736;28;20386;-77
2023/03/29 19:10:20;;;;;;;18.40;8.57;;;7.40;44.30;;;;;;10417275;28;20226;-79
2023/03/29 19:15:41;;;;;;;18.33;8.40;;;7.40;48.60;;;;;;10450494;28;20201;-78
2023/03/29 19:21:02;;;;;;;39.67;20.17;;;7.40;49.70;;;;;;10449883;28;20240;-76
2023/03/29 19:26:24;;;;;;;30.57;16.47;;;7.40;49.00;;;;;;10445639;28;20214;-77
2023/03/29 19:31:45;;;;;;;26.10;13.87;;;7.40;50.90;;;;;;10447958;28;20197;-76
2023/03/29 19:37:06;;;;;;;25.33;10.90;;;7.40;53.10;;;;;;10446700;28;20399;-75
2023/03/29 19:42:27;;;;;;;24.17;11.10;;;7.40;52.40;;;;;;10448047;28;20320;-75
2023/03/29 19:47:56;;;;;;;21.33;9.40;;;7.40;52.70;;;;;;10448861;28;20348;-76
2023/03/29 19:53:17;;;;;;;17.40;8.73;;;7.40;58.30;;;;;;10439977;28;20501;-78
2023/03/29 19:58:38;;;;;;;22.33;9.07;;;7.40;57.50;;;;;;10406590;28;20207;-76
2023/03/29 20:04:01;;;;;;;16.97;8.33;;;7.30;57.10;;;;;;10399707;28;20218;-80
2023/03/29 20:09:22;;;;;;;15.10;8.17;;;7.30;64.80;;;;;;10417507;28;20212;-80
2023/03/29 20:14:43;;;;;;;23.93;12.63;;;7.30;60.10;;;;;;10440226;28;20212;-80
2023/03/29 20:20:10;;;;;;;17.13;10.03;;;7.30;60.50;;;;;;10441647;28;20252;-80
2023/03/29 20:25:34;;;;;;;19.47;10.77;;;7.30;64.20;;;;;;10440056;28;20306;-76
2023/03/29 20:30:55;;;;;;;19.77;11.17;;;7.20;61.50;;;;;;10431455;28;20294;-80
2023/03/29 20:36:17;;;;;;;17.80;10.67;;;7.20;68.10;;;;;;10429993;28;20205;-79
2023/03/29 20:41:38;;;;;;;30.30;15.07;;;7.20;70.50;;;;;;10425793;28;20245;-81
2023/03/29 20:47:03;;;;;;;25.33;13.40;;;7.20;69.60;;;;;;10438998;28;20413;-79
2023/03/29 20:52:24;;;;;;;24.50;12.20;;;7.20;75.80;;;;;;10440340;28;20260;-80
2023/03/29 20:57:45;;;;;;;22.63;11.73;;;7.10;76.70;;;;;;10413486;28;20229;-80
2023/03/29 21:03:07;;;;;;;25.17;14.23;;;7.10;80.00;;;;;;10399022;28;20222;-76
2023/03/29 21:08:29;;;;;;;36.07;16.30;;;7.10;82.70;;;;;;10398694;28;20194;-79
2023/03/29 21:13:51;;;;;;;35.37;19.33;;;7.00;83.90;;;;;;10451978;28;20198;-76
2023/03/29 21:19:13;;;;;;;46.83;23.97;;;7.00;83.30;;;;;;10439267;28;20186;-78
2023/03/29 21:24:37;;;;;;;32.03;17.67;;;7.00;85.30;;;;;;10437302;28;20550;-76
2023/03/29 21:29:58;;;;;;;26.83;13.67;;;7.00;87.40;;;;;;10438909;28;20204;-79
2023/03/29 21:35:20;;;;;;;20.77;12.07;;;7.00;87.60;;;;;;10438796;28;20456;-78
2023/03/29 21:40:41;;;;;;;20.60;11.07;;;7.00;90.20;;;;;;10436863;28;20232;-79
2023/03/29 21:46:02;;;;;;;20.30;10.93;;;7.00;90.90;;;;;;10437906;28;20265;-76
2023/03/29 21:51:24;;;;;;;23.67;11.80;;;7.00;90.20;;;;;;10437484;28;20197;-77
2023/03/29 21:56:46;;;;;;;29.07;14.80;;;7.00;91.60;;;;;;10413278;28;20268;-79
2023/03/29 22:02:07;;;;;;;25.80;13.37;;;7.00;91.10;;;;;;10396569;28;20234;-75
2023/03/29 22:07:28;;;;;;;20.83;11.00;;;7.00;92.10;;;;;;10396337;28;20519;-76
2023/03/29 22:12:50;;;;;;;20.37;10.47;;;7.00;92.10;;;;;;10408350;28;20220;-76
2023/03/29 22:18:12;;;;;;;18.77;11.53;;;7.00;92.40;;;;;;10396980;28;20201;-77
2023/03/29 22:23:32;;;;;;;23.53;12.53;;;7.00;93.10;;;;;;10426042;28;20515;-76
2023/03/29 22:28:54;;;;;;;23.83;12.10;;;7.00;93.20;;;;;;10414919;28;20195;-76
2023/03/29 22:34:15;;;;;;;20.47;11.20;;;7.00;94.50;;;;;;10436548;28;20270;-79
2023/03/29 22:39:36;;;;;;;18.80;10.47;;;7.00;94.50;;;;;;10436523;28;20472;-79
2023/03/29 22:44:57;;;;;;;19.40;9.90;;;7.00;94.80;;;;;;10435688;28;20547;-76
2023/03/29 22:50:18;;;;;;;16.73;9.87;;;7.00;95.00;;;;;;10425801;28;20205;-77
2023/03/29 22:55:40;;;;;;;16.17;9.27;;;7.00;95.80;;;;;;10402531;28;20195;-77
2023/03/29 23:01:01;;;;;;;16.50;9.90;;;7.00;95.40;;;;;;10387188;28;20432;-78
2023/03/29 23:06:23;;;;;;;25.40;11.23;;;7.00;95.40;;;;;;10446408;28;20516;-75
2023/03/29 23:11:43;;;;;;;20.80;10.57;;;7.00;96.20;;;;;;10434715;28;20190;-80
2023/03/29 23:17:05;;;;;;;18.43;9.70;;;7.00;95.80;;;;;;10420046;28;20387;-77
2023/03/29 23:22:26;;;;;;;18.67;9.23;;;7.00;96.70;;;;;;10450050;28;20301;-75
2023/03/29 23:27:47;;;;;;;14.73;8.17;;;7.00;96.40;;;;;;10435364;28;20194;-77
2023/03/29 23:33:09;;;;;;;15.37;8.90;;;7.00;96.80;;;;;;10437793;28;20208;-79
2023/03/29 23:38:32;;;;;;;16.17;8.70;;;7.00;96.80;;;;;;10445467;28;20193;-77
2023/03/29 23:43:53;;;;;;;14.37;8.60;;;7.00;97.30;;;;;;10413842;28;20246;-79
2023/03/29 23:49:16;;;;;;;18.10;9.40;;;7.00;97.40;;;;;;10425272;28;20281;-76
2023/03/29 23:54:36;;;;;;;19.40;10.67;;;7.00;97.60;;;;;;10425009;28;20498;-76
2023/03/29 23:59:59;;;;;;;18.53;9.17;;;7.00;97.70;;;;;;10401274;28;20304;-76
